createdAt,value
2023-01-01T00:00:45.389Z,62.28
2023-01-01T00:03:14.420Z,57.90
2023-01-01T00:05:43.380Z,48.53
2023-01-01T00:08:12.322Z,50.08
2023-01-01T00:10:41.512Z,60.00
2023-01-01T00:13:16.807Z,49.40
2023-01-01T00:15:45.923Z,44.53
2023-01-01T00:18:16.268Z,51.42
2023-01-01T00:20:45.324Z,51.67
2023-01-01T00:23:14.377Z,51.83
2023-01-01T00:25:43.249Z,46.20
2023-01-01T00:28:12.285Z,42.75
2023-01-01T00:30:43.900Z,45.90
2023-01-01T00:33:12.865Z,47.42
2023-01-01T00:35:41.786Z,47.35
2023-01-01T00:38:12.866Z,49.45
2023-01-01T00:40:41.819Z,51.17
2023-01-01T00:43:13.664Z,52.10
2023-01-01T00:45:49.014Z,51.78
2023-01-01T00:48:20.003Z,48.38
2023-01-01T00:50:51.901Z,47.75
2023-01-01T00:53:21.813Z,48.88
2023-01-01T00:55:56.555Z,47.75
2023-01-01T00:58:28.999Z,51.22
2023-01-01T01:01:14.900Z,49.05
2023-01-01T01:03:52.213Z,47.35
2023-01-01T01:06:21.675Z,49.00
2023-01-01T01:08:52.301Z,45.75
2023-01-01T01:11:24.686Z,48.83
2023-01-01T01:13:58.482Z,47.25
2023-01-01T01:16:34.529Z,46.60
2023-01-01T01:19:07.525Z,45.22
2023-01-01T01:21:36.934Z,45.25
2023-01-01T01:24:06.537Z,45.28
2023-01-01T01:26:36.926Z,40.28
2023-01-01T01:29:06.181Z,45.22
2023-01-01T01:31:36.928Z,41.15
2023-01-01T01:34:12.195Z,40.40
2023-01-01T01:36:45.833Z,43.55
2023-01-01T01:39:17.498Z,44.03
2023-01-01T01:41:46.403Z,42.00
2023-01-01T01:45:01.410Z,44.30
2023-01-01T01:47:47.709Z,45.38
2023-01-01T01:50:25.894Z,41.63
2023-01-01T01:53:08.270Z,42.90
2023-01-01T01:55:45.111Z,41.83
2023-01-01T01:58:18.046Z,42.10
2023-01-01T02:00:47.225Z,40.15
2023-01-01T02:03:24.087Z,46.30
2023-01-01T02:05:53.912Z,45.38
2023-01-01T02:08:23.359Z,43.47
2023-01-01T02:10:52.514Z,44.08
2023-01-01T02:13:21.814Z,43.85
2023-01-01T02:15:56.809Z,47.45
2023-01-01T02:18:39.066Z,44.53
2023-01-01T02:21:15.020Z,45.97
2023-01-01T02:24:18.450Z,47.47
2023-01-01T02:26:58.170Z,46.95
2023-01-01T02:29:41.748Z,47.90
2023-01-01T02:32:15.553Z,48.85
2023-01-01T02:34:51.604Z,48.55
2023-01-01T02:37:23.417Z,43.42
2023-01-01T02:40:00.128Z,45.70
2023-01-01T02:42:31.570Z,44.58
2023-01-01T02:45:05.323Z,44.28
2023-01-01T02:47:34.377Z,45.72
2023-01-01T02:50:13.190Z,44.65
2023-01-01T02:53:15.029Z,47.08
2023-01-01T02:56:01.909Z,45.15
2023-01-01T02:58:54.634Z,43.97
2023-01-01T03:01:35.839Z,48.50
2023-01-01T03:04:15.826Z,47.33
2023-01-01T03:06:55.152Z,42.50
2023-01-01T03:09:34.949Z,43.42
2023-01-01T03:12:20.072Z,46.70
2023-01-01T03:14:58.807Z,47.90
2023-01-01T03:17:37.546Z,47.63
2023-01-01T03:20:13.989Z,48.42
2023-01-01T03:25:22.886Z,41.55
2023-01-01T03:27:57.946Z,39.88
2023-01-01T03:30:28.983Z,43.08
2023-01-01T03:33:04.869Z,43.72
2023-01-01T03:35:40.685Z,44.05
2023-01-01T03:38:16.794Z,41.72
2023-01-01T03:40:50.555Z,44.00
2023-01-01T03:43:29.869Z,43.83
2023-01-01T03:46:02.307Z,42.25
2023-01-01T03:49:00.267Z,41.90
2023-01-01T03:52:00.560Z,45.83
2023-01-01T03:54:44.241Z,43.25
2023-01-01T03:57:22.923Z,44.60
2023-01-01T04:00:03.770Z,41.25
2023-01-01T04:02:39.985Z,41.05
2023-01-01T04:05:12.633Z,38.92
2023-01-01T04:10:18.421Z,39.67
2023-01-01T04:12:50.827Z,38.28
2023-01-01T04:15:24.214Z,38.33
2023-01-01T04:17:54.046Z,37.00
2023-01-01T04:20:25.484Z,38.75
2023-01-01T04:22:57.458Z,36.45
2023-01-01T04:25:26.749Z,33.20
2023-01-01T04:27:55.949Z,34.17
2023-01-01T04:30:24.869Z,36.25
2023-01-01T04:32:53.842Z,35.80
2023-01-01T04:35:24.263Z,35.13
2023-01-01T04:37:53.389Z,35.90
2023-01-01T04:40:22.395Z,36.42
2023-01-01T04:42:54.734Z,39.38
2023-01-01T04:45:23.834Z,36.42
2023-01-01T04:47:52.821Z,37.47
2023-01-01T04:50:21.753Z,32.88
2023-01-01T04:52:54.158Z,32.83
2023-01-01T04:55:23.160Z,35.30
2023-01-01T04:57:52.408Z,32.30
2023-01-01T05:00:23.327Z,38.05
2023-01-01T05:02:55.111Z,31.67
2023-01-01T05:05:24.263Z,30.50
2023-01-01T05:07:54.605Z,34.63
2023-01-01T05:10:23.662Z,32.40
2023-01-01T05:12:56.681Z,37.33
2023-01-01T05:15:25.597Z,34.60
2023-01-01T05:17:56.293Z,33.90
2023-01-01T05:20:25.171Z,31.40
2023-01-01T05:22:55.509Z,31.08
2023-01-01T05:25:24.517Z,33.00
2023-01-01T05:27:53.851Z,32.05
2023-01-01T05:30:23.217Z,32.50
2023-01-01T05:32:52.317Z,31.42
2023-01-01T05:35:26.186Z,31.42
2023-01-01T05:37:57.069Z,32.25
2023-01-01T05:40:25.958Z,30.17
2023-01-01T05:42:54.924Z,32.67
2023-01-01T05:45:24.192Z,34.55
2023-01-01T05:47:53.162Z,30.55
2023-01-01T05:50:22.084Z,32.03
2023-01-01T05:52:51.024Z,34.95
2023-01-01T05:55:21.341Z,33.85
2023-01-01T05:57:50.256Z,32.08
2023-01-01T06:00:19.667Z,32.97
2023-01-01T06:02:50.044Z,31.08
2023-01-01T06:05:19.562Z,32.80
2023-01-01T06:07:48.962Z,32.70
2023-01-01T06:10:18.305Z,35.55
2023-01-01T06:12:48.628Z,33.20
2023-01-01T06:15:17.743Z,31.73
2023-01-01T06:17:47.224Z,31.10
2023-01-01T06:20:16.435Z,33.30
2023-01-01T06:22:45.716Z,31.40
2023-01-01T06:25:14.979Z,31.27
2023-01-01T06:27:43.934Z,30.05
2023-01-01T06:30:14.975Z,30.88
2023-01-01T06:32:43.896Z,32.10
2023-01-01T06:35:12.810Z,30.23
2023-01-01T06:37:41.686Z,30.92
2023-01-01T06:40:11.883Z,34.83
2023-01-01T06:42:40.869Z,33.95
2023-01-01T06:45:11.907Z,33.95
2023-01-01T06:47:42.286Z,35.00
2023-01-01T06:50:11.606Z,33.95
2023-01-01T06:52:40.585Z,35.75
2023-01-01T06:55:10.608Z,34.13
2023-01-01T06:57:39.694Z,31.75
2023-01-01T07:00:10.675Z,35.80
2023-01-01T07:02:39.871Z,34.25
2023-01-01T07:05:12.993Z,34.72
2023-01-01T07:07:42.457Z,31.48
2023-01-01T07:10:11.655Z,35.13
2023-01-01T07:12:40.467Z,34.42
2023-01-01T07:15:10.763Z,32.30
2023-01-01T07:17:39.464Z,30.95
2023-01-01T07:20:11.298Z,31.85
2023-01-01T07:22:41.679Z,33.55
2023-01-01T07:25:15.978Z,29.77
2023-01-01T07:27:44.713Z,32.20
2023-01-01T07:30:13.743Z,34.33
2023-01-01T07:32:42.596Z,31.75
2023-01-01T07:35:12.901Z,31.05
2023-01-01T07:37:41.713Z,30.50
2023-01-01T07:40:12.353Z,31.17
2023-01-01T07:42:41.086Z,68.03
2023-01-01T07:45:13.680Z,34.22
2023-01-01T07:47:42.457Z,32.45
2023-01-01T07:50:19.007Z,29.75
2023-01-01T07:52:47.748Z,27.92
2023-01-01T07:55:20.120Z,31.13
2023-01-01T07:57:50.360Z,31.23
2023-01-01T08:00:22.856Z,28.52
2023-01-01T08:02:53.814Z,30.10
2023-01-01T08:05:26.880Z,30.27
2023-01-01T08:07:58.766Z,30.08
2023-01-01T08:10:27.801Z,72.82
2023-01-01T08:13:02.171Z,42.58
2023-01-01T08:15:31.862Z,37.08
2023-01-01T08:18:01.769Z,33.65
2023-01-01T08:20:34.354Z,29.58
2023-01-01T08:23:07.366Z,30.52
2023-01-01T08:25:37.007Z,33.33
2023-01-01T08:28:06.353Z,29.77
2023-01-01T08:30:35.215Z,35.97
2023-01-01T08:33:04.295Z,30.67
2023-01-01T08:35:37.221Z,25.58
2023-01-01T08:38:06.111Z,27.92
2023-01-01T08:40:36.713Z,27.55
2023-01-01T08:43:05.593Z,24.83
2023-01-01T08:45:34.589Z,25.60
2023-01-01T08:48:03.454Z,24.75
2023-01-01T08:50:33.855Z,24.83
2023-01-01T08:53:02.727Z,25.98
2023-01-01T08:55:31.517Z,27.83
2023-01-01T08:58:00.263Z,29.00
2023-01-01T09:00:29.027Z,27.17
2023-01-01T09:02:57.863Z,28.23
2023-01-01T09:05:26.737Z,27.45
2023-01-01T09:07:56.955Z,27.38
2023-01-01T09:10:26.014Z,26.02
2023-01-01T09:12:54.805Z,26.50
2023-01-01T09:15:23.796Z,28.00
2023-01-01T09:17:52.544Z,24.20
2023-01-01T09:20:21.356Z,25.10
2023-01-01T09:22:50.207Z,26.52
2023-01-01T09:25:20.580Z,24.60
2023-01-01T09:27:49.506Z,20.45
2023-01-01T09:30:18.304Z,20.65
2023-01-01T09:32:49.063Z,20.10
2023-01-01T09:35:18.093Z,21.10
2023-01-01T09:37:47.341Z,22.20
2023-01-01T09:40:32.505Z,22.80
2023-01-01T09:43:16.034Z,21.35
2023-01-01T09:45:57.951Z,23.25
2023-01-01T09:48:30.104Z,22.27
2023-01-01T09:51:01.594Z,23.65
2023-01-01T09:53:39.293Z,23.27
2023-01-01T09:56:19.921Z,21.30
2023-01-01T09:58:48.818Z,19.33
2023-01-01T10:01:35.067Z,19.27
2023-01-01T10:04:22.198Z,18.48
2023-01-01T10:07:11.363Z,20.60
2023-01-01T10:09:55.401Z,18.90
2023-01-01T10:12:40.750Z,19.30
2023-01-01T10:15:19.961Z,21.67
2023-01-01T10:17:53.833Z,19.48
2023-01-01T10:20:28.287Z,19.17
2023-01-01T10:23:04.776Z,20.08
2023-01-01T10:25:36.312Z,20.30
2023-01-01T10:28:15.327Z,24.33
2023-01-01T10:30:45.328Z,20.67
2023-01-01T10:33:16.051Z,17.27
2023-01-01T10:35:50.831Z,17.27
2023-01-01T10:38:25.957Z,18.42
2023-01-01T10:41:02.128Z,24.42
2023-01-01T10:43:32.532Z,23.17
2023-01-01T10:46:04.493Z,20.45
2023-01-01T10:48:36.102Z,21.30
2023-01-01T10:51:08.759Z,18.98
2023-01-01T10:53:41.356Z,19.58
2023-01-01T10:56:14.491Z,19.63
2023-01-01T10:58:47.692Z,20.33
2023-01-01T11:01:24.644Z,21.52
2023-01-01T11:04:00.706Z,19.48
2023-01-01T11:06:34.849Z,18.70
2023-01-01T11:09:08.202Z,18.02
2023-01-01T11:11:46.615Z,20.83
2023-01-01T11:14:26.637Z,18.55
2023-01-01T11:16:57.199Z,16.50
2023-01-01T11:19:36.586Z,16.45
2023-01-01T11:22:07.303Z,16.73
2023-01-01T11:24:37.443Z,16.63
2023-01-01T11:27:26.602Z,18.42
2023-01-01T11:30:23.568Z,16.63
2023-01-01T11:32:57.666Z,16.70
2023-01-01T11:35:30.465Z,19.23
2023-01-01T11:38:01.025Z,22.30
2023-01-01T11:40:38.511Z,17.83
2023-01-01T11:43:08.713Z,18.00
2023-01-01T11:45:43.237Z,17.40
2023-01-01T11:48:19.566Z,17.15
2023-01-01T11:50:55.857Z,15.10
2023-01-01T11:54:14.733Z,32.72
2023-01-01T11:57:03.397Z,14.85
2023-01-01T12:00:12.316Z,18.30
2023-01-01T12:03:06.296Z,16.95
2023-01-01T12:05:53.831Z,15.90
2023-01-01T12:08:37.096Z,16.20
2023-01-01T12:11:18.797Z,17.38
2023-01-01T12:13:55.551Z,15.38
2023-01-01T12:16:47.561Z,15.85
2023-01-01T12:19:25.936Z,29.98
2023-01-01T12:22:01.412Z,16.65
2023-01-01T12:24:36.484Z,17.90
2023-01-01T12:27:19.512Z,16.08
2023-01-01T12:30:13.108Z,17.27
2023-01-01T12:33:28.057Z,15.95
2023-01-01T12:36:17.206Z,17.10
2023-01-01T12:39:38.724Z,14.93
2023-01-01T12:42:21.369Z,16.13
2023-01-01T12:45:23.291Z,16.13
2023-01-01T12:48:07.508Z,17.15
2023-01-01T12:50:57.307Z,16.75
2023-01-01T12:53:43.142Z,19.55
2023-01-01T12:56:23.162Z,16.73
2023-01-01T12:59:00.156Z,20.65
2023-01-01T13:01:34.535Z,20.30
2023-01-01T13:04:07.892Z,20.17
2023-01-01T13:06:43.967Z,21.45
2023-01-01T13:09:19.953Z,20.25
2023-01-01T13:11:55.096Z,21.00
2023-01-01T13:14:23.999Z,21.67
2023-01-01T13:16:57.938Z,23.00
2023-01-01T13:19:33.982Z,22.48
2023-01-01T13:22:43.121Z,22.58
2023-01-01T13:25:25.072Z,23.20
2023-01-01T13:28:14.256Z,26.10
2023-01-01T13:30:51.855Z,21.48
2023-01-01T13:33:29.830Z,26.15
2023-01-01T13:36:32.911Z,22.20
2023-01-01T13:39:02.296Z,23.27
2023-01-01T13:41:40.647Z,22.98
2023-01-01T13:44:27.787Z,24.63
2023-01-01T13:47:23.287Z,23.42
2023-01-01T13:50:13.811Z,23.42
2023-01-01T13:53:23.527Z,22.55
2023-01-01T13:56:13.197Z,26.08
2023-01-01T13:59:21.055Z,22.80
2023-01-01T14:02:13.168Z,22.35
2023-01-01T14:04:48.879Z,23.77
2023-01-01T14:07:50.772Z,25.67
2023-01-01T14:10:30.199Z,25.77
2023-01-01T14:13:17.441Z,23.55
2023-01-01T14:16:28.491Z,22.45
2023-01-01T14:19:01.553Z,23.10
2023-01-01T14:21:49.875Z,23.13
2023-01-01T14:24:30.509Z,22.65
2023-01-01T14:27:08.692Z,25.17
2023-01-01T14:29:37.792Z,23.85
2023-01-01T14:32:22.875Z,25.70
2023-01-01T14:35:01.905Z,23.17
2023-01-01T14:37:30.817Z,22.70
2023-01-01T14:40:18.284Z,24.42
2023-01-01T14:42:50.353Z,24.65
2023-01-01T14:45:20.205Z,23.42
2023-01-01T14:47:54.635Z,29.05
2023-01-01T14:50:30.682Z,26.42
2023-01-01T14:53:06.336Z,23.20
2023-01-01T14:55:42.485Z,25.00
2023-01-01T14:58:26.992Z,26.60
2023-01-01T15:01:14.387Z,22.58
2023-01-01T15:03:58.299Z,27.73
2023-01-01T15:06:27.446Z,25.65
2023-01-01T15:08:56.617Z,25.25
2023-01-01T15:11:28.995Z,24.45
2023-01-01T15:14:02.229Z,26.70
2023-01-01T15:16:38.089Z,36.85
2023-01-01T15:19:20.263Z,39.15
2023-01-01T15:21:49.161Z,23.58
2023-01-01T15:24:22.358Z,24.92
2023-01-01T15:26:54.981Z,21.27
2023-01-01T15:29:33.302Z,22.63
2023-01-01T15:32:06.142Z,22.65
2023-01-01T15:34:44.459Z,23.30
2023-01-01T15:37:22.405Z,24.15
2023-01-01T15:39:54.176Z,23.55
2023-01-01T15:42:37.973Z,21.92
2023-01-01T15:45:20.716Z,24.55
2023-01-01T15:55:37.179Z,24.08
2023-01-01T15:58:06.771Z,29.80
2023-01-01T16:00:42.347Z,29.27
2023-01-01T16:03:24.870Z,30.95
2023-01-01T16:05:59.359Z,27.75
2023-01-01T16:08:30.078Z,26.40
2023-01-01T16:10:59.189Z,27.10
2023-01-01T16:13:28.177Z,29.17
2023-01-01T16:16:01.237Z,28.77
2023-01-01T16:18:53.961Z,30.08
2023-01-01T16:21:26.754Z,26.05
2023-01-01T16:24:02.183Z,25.80
2023-01-01T16:26:32.612Z,24.55
2023-01-01T16:29:01.547Z,25.85
2023-01-01T16:31:30.498Z,23.05
2023-01-01T16:34:05.803Z,23.95
2023-01-01T16:36:38.057Z,22.55
2023-01-01T16:39:13.392Z,20.38
2023-01-01T16:41:44.171Z,23.40
2023-01-01T16:44:14.900Z,24.17
2023-01-01T16:46:44.129Z,21.63
2023-01-01T16:49:13.268Z,23.50
2023-01-01T16:51:43.984Z,20.73
2023-01-01T16:54:15.364Z,23.67
2023-01-01T16:56:44.357Z,24.15
2023-01-01T16:59:15.259Z,25.20
2023-01-01T17:01:45.046Z,25.00
2023-01-01T17:04:14.632Z,26.73
2023-01-01T17:06:43.854Z,25.42
2023-01-01T17:09:15.669Z,26.85
2023-01-01T17:11:46.249Z,22.60
2023-01-01T17:14:15.138Z,27.35
2023-01-01T17:16:44.137Z,23.83
2023-01-01T17:19:15.734Z,25.17
2023-01-01T17:21:46.835Z,24.38
2023-01-01T17:24:18.953Z,20.23
2023-01-01T17:26:52.398Z,20.08
2023-01-01T17:29:21.838Z,20.42
2023-01-01T17:31:51.144Z,18.13
2023-01-01T17:34:20.246Z,20.15
2023-01-01T17:36:49.753Z,19.65
2023-01-01T17:39:20.179Z,18.98
2023-01-01T17:41:49.985Z,21.25
2023-01-01T17:44:19.039Z,21.55
2023-01-01T17:46:48.293Z,20.08
2023-01-01T17:49:17.393Z,20.98
2023-01-01T17:51:46.362Z,17.77
2023-01-01T17:54:15.419Z,18.40
2023-01-01T17:56:45.750Z,18.25
2023-01-01T17:59:14.793Z,18.45
2023-01-01T18:01:44.335Z,157.15
2023-01-01T18:04:13.534Z,21.35
2023-01-01T18:06:44.890Z,20.48
2023-01-01T18:09:17.141Z,19.63
2023-01-01T18:11:47.637Z,21.02
2023-01-01T18:14:22.514Z,19.08
2023-01-01T18:16:53.510Z,18.85
2023-01-01T18:19:22.651Z,17.40
2023-01-01T18:21:51.613Z,17.55
2023-01-01T18:24:20.593Z,18.17
2023-01-01T18:26:51.156Z,21.95
2023-01-01T18:29:20.470Z,20.50
2023-01-01T18:31:49.516Z,19.73
2023-01-01T18:34:24.755Z,19.15
2023-01-01T18:36:57.203Z,20.45
2023-01-01T18:39:33.620Z,23.80
2023-01-01T18:42:32.594Z,18.73
2023-01-01T18:45:15.717Z,18.98
2023-01-01T18:47:46.566Z,19.40
2023-01-01T18:50:24.030Z,18.48
2023-01-01T18:52:57.243Z,20.27
2023-01-01T18:55:28.181Z,21.17
2023-01-01T18:58:05.170Z,26.98
2023-01-01T19:00:36.561Z,31.65
2023-01-01T19:03:15.284Z,22.40
2023-01-01T19:05:45.130Z,18.02
2023-01-01T19:08:18.146Z,19.98
2023-01-01T19:10:50.520Z,19.02
2023-01-01T19:13:24.599Z,18.25
2023-01-01T19:16:01.525Z,17.88
2023-01-01T19:18:34.108Z,18.20
2023-01-01T19:21:22.381Z,17.50
2023-01-01T19:23:54.038Z,20.50
2023-01-01T19:26:39.180Z,17.77
2023-01-01T19:29:19.757Z,19.75
2023-01-01T19:31:51.373Z,15.18
2023-01-01T19:34:20.899Z,16.50
2023-01-01T19:36:53.599Z,15.85
2023-01-01T19:39:22.557Z,18.50
2023-01-01T19:41:51.531Z,17.15
2023-01-01T19:44:25.211Z,16.77
2023-01-01T19:46:54.518Z,18.10
2023-01-01T19:49:23.716Z,16.05
2023-01-01T19:51:52.628Z,16.55
2023-01-01T19:54:21.630Z,18.17
2023-01-01T19:56:51.764Z,16.63
2023-01-01T19:59:25.300Z,16.85
2023-01-01T20:02:34.701Z,16.50
2023-01-01T20:04:49.373Z,24.20
2023-01-01T20:07:18.881Z,29.05
2023-01-01T20:09:48.003Z,19.48
2023-01-01T20:12:16.996Z,23.40
2023-01-01T20:14:47.308Z,19.02
2023-01-01T20:17:18.059Z,18.83
2023-01-01T20:19:47.112Z,18.95
2023-01-01T20:22:17.746Z,16.15
2023-01-01T20:24:46.688Z,17.42
2023-01-01T20:27:18.879Z,19.17
2023-01-01T20:29:49.605Z,16.85
2023-01-01T20:32:18.867Z,18.13
2023-01-01T20:34:47.965Z,16.48
2023-01-01T20:37:34.396Z,18.75
2023-01-01T20:40:03.508Z,16.17
2023-01-01T20:52:02.407Z,16.38
2023-01-01T20:54:28.232Z,18.58
2023-01-01T20:56:57.212Z,20.92
2023-01-01T20:59:35.992Z,20.52
2023-01-01T21:02:10.108Z,19.55
2023-01-01T21:04:48.276Z,17.45
2023-01-01T21:07:17.527Z,18.90
2023-01-01T21:10:01.791Z,19.38
2023-01-01T21:12:30.709Z,17.90
2023-01-01T21:15:00.935Z,18.67
2023-01-01T21:17:31.467Z,17.80
2023-01-01T21:20:00.661Z,19.85
2023-01-01T21:22:29.755Z,18.80
2023-01-01T21:25:23.907Z,20.00
2023-01-01T21:27:48.167Z,18.30
2023-01-01T21:30:17.190Z,17.90
2023-01-01T21:32:49.773Z,17.92
2023-01-01T21:35:33.800Z,17.65
2023-01-01T21:38:20.302Z,18.98
2023-01-01T21:40:59.910Z,17.90
2023-01-01T21:43:37.819Z,21.60
2023-01-01T21:46:34.845Z,25.25
2023-01-01T21:49:18.517Z,24.35
2023-01-01T21:51:55.556Z,20.58
2023-01-01T21:54:31.778Z,18.80
2023-01-01T21:57:03.277Z,17.02
2023-01-01T21:59:39.387Z,20.33
2023-01-01T22:02:40.586Z,18.75
2023-01-01T22:05:34.277Z,20.75
2023-01-01T22:08:25.522Z,20.33
2023-01-01T22:10:54.320Z,18.95
2023-01-01T22:13:30.257Z,20.90
2023-01-01T22:15:59.177Z,16.98
2023-01-01T22:18:30.981Z,17.73
2023-01-01T22:21:02.876Z,18.10
2023-01-01T22:23:39.961Z,19.98
2023-01-01T22:26:20.160Z,21.10
2023-01-01T22:28:53.036Z,19.10
2023-01-01T22:31:27.465Z,19.30
2023-01-01T22:34:00.301Z,20.58
2023-01-01T22:36:36.464Z,18.05
2023-01-01T22:39:27.785Z,21.15
2023-01-01T22:41:58.113Z,20.05
2023-01-01T22:44:28.878Z,21.58
2023-01-01T22:47:01.686Z,20.25
2023-01-01T22:49:40.110Z,19.92
2023-01-01T22:52:12.109Z,22.40
2023-01-01T22:54:41.386Z,19.33
2023-01-01T22:57:10.445Z,21.58
2023-01-01T22:59:39.518Z,21.77
2023-01-01T23:02:09.944Z,21.63
2023-01-01T23:04:39.094Z,22.10
2023-01-01T23:07:14.575Z,21.25
2023-01-01T23:09:44.689Z,22.80
2023-01-01T23:12:13.743Z,22.80
2023-01-01T23:15:00.206Z,22.83
2023-01-01T23:17:28.880Z,18.40
2023-01-01T23:19:58.569Z,22.10
2023-01-01T23:22:32.905Z,22.05
2023-01-01T23:25:01.984Z,23.45
2023-01-01T23:27:31.097Z,23.08
2023-01-01T23:30:03.615Z,22.63
2023-01-01T23:32:34.917Z,22.63
2023-01-01T23:35:04.975Z,22.60
2023-01-01T23:37:35.763Z,21.42
2023-01-01T23:40:04.994Z,21.00
2023-01-01T23:42:34.067Z,23.73
2023-01-01T23:45:03.039Z,20.40
2023-01-01T23:47:32.061Z,19.90
2023-01-01T23:50:01.087Z,21.92
2023-01-01T23:52:32.030Z,21.55
2023-01-01T23:55:02.714Z,22.85
2023-01-01T23:57:31.707Z,20.20
